Tiempo atmosférico en la estación meteorológica de Fuerteventura Aeropuerto, Las Palmas (25 m.)



Fecha
DESCASC
Temp. máxima en grados centígrados (hora)
DESCASC
Temp. mínima en grados centígrados (hora)
DESCASC
Temp. media en grados centígrados
DESCASC
Racha de viento máxima en m/sg (hora)
DESCASC
Velocidad máxima media en intervalos de 10 minutos(hora)
DESCASC
Precipitaciones diarias en mm
DESCASC
Precipitaciones de 00:00 a 06:00 en mm
DESCASC
Precipitaciones de 06:00 a 12:00 en mm
DESCASC
Precipitaciones de 12:00 a 18:00 en mm
DESCASC
Precipitaciones de 18:00 a 24:00 en mm
DESCASC
11-08-2020 27.2 (13:20) 22.6 (07:30) 24.9 13.33 (20:20) 10.83 (20:20) 0 0 0 0 0
10-08-2020 27.3 (18:30) 22 (05:40) 24.6 12.78 (18:30) 10.56 (18:30) 0 0 0 0 0
09-08-2020 27.3 (14:10) 22.6 (06:30) 24.9 12.78 (08:40) 10.56 (09:10) 0 0 0 0 0
08-08-2020 26.9 (15:10) 22.5 (07:30) 24.7 12.78 (19:20) 10.28 (19:00) 0 0 0 0 0
07-08-2020 26.8 (15:00) 22.7 (00:00) 24.8 11.39 (18:20) 8.89 (19:40) 0 0 0 0 0
06-08-2020 29.2 (17:10) 22.2 (00:00) 25.7 12.78 (16:10) 9.17 (16:10) 0 0 0 0 0
05-08-2020 29.3 (17:10) 21.6 (00:00) 25.4 12.5 (19:00) 9.17 (19:30) 0 0 0 0 0
04-08-2020 29.2 (13:50) 22.1 (07:10) 25.7 12.78 (01:10) 10 (01:20) 0 0 0 0 0
03-08-2020 28.8 (11:10) 24 (06:50) 26.4 12.78 (09:20) 10.28 (14:30) 0 0 0 0 0
02-08-2020 30 (13:50) 22.9 (00:00) 26.4 12.5 (11:10) 9.17 (11:20) 0 0 0 0 0
01-08-2020 26.6 (16:00) 22.5 (00:00) 24.6 11.67 (20:30) 9.72 (20:30) 0 0 0 0 0
31-07-2020 26.1 (15:10) 21.7 (06:10) 23.9 10.28 (00:10) 8.06 (00:10) 0 0 0 0 0
30-07-2020 26.2 (15:50) 21.7 (00:00) 24 11.67 (00:10) 9.72 (02:00) 0 0 0 0 0
29-07-2020 26.5 (13:20) 21.8 (00:00) 24.1 15 (04:40) 11.39 (04:30) 0 0 0 0 0
28-07-2020 26.6 (15:10) 21.8 (00:00) 24.2 13.89 (23:40) 11.11 (23:40) 0 0 0 0 0
27-07-2020 26.3 (15:50) 21.1 (00:00) 23.7 12.5 (01:50) 10.28 (10:50) 0 0 0 0 0
26-07-2020 26.6 (13:50) 22.3 (00:00) 24.4 12.78 (09:40) 9.72 (09:30) 0 0 0 0 0
25-07-2020 28.6 (18:00) 22.1 (00:00) 25.4 13.89 (18:10) 10.28 (18:00) 0 0 0 0 0
24-07-2020 29.5 (18:00) 21.3 (00:00) 25.4 12.5 (20:50) 8.89 (19:40) 0 0 0 0 0
23-07-2020 26.4 (15:10) 21.2 (00:00) 23.8 11.67 (12:40) 9.44 (13:30) 0 0 0 0 0
22-07-2020 26.4 (15:40) 21.8 (00:00) 24.1 12.5 (04:40) 9.72 (03:30) 0 0 0 0 0
21-07-2020 26.6 (14:00) 21.9 (00:00) 24.3 12.78 (00:50) 10.56 (00:50) 0 0 0 0 0
20-07-2020 30.4 (16:10) 22.6 (00:00) 26.5 15 (16:00) 11.67 (16:50) 0 0 0 0 0
19-07-2020 36.5 (17:10) 26.7 (00:00) 31.6 12.5 (18:20) 9.44 (18:20) 0 0 0 0 0
18-07-2020 31.5 (17:20) 21.9 (00:00) 26.7 11.67 (01:50) 8.89 (02:00) 0 0 0 0 0
17-07-2020 29.2 (19:20) 21.1 (00:00) 25.2 15.28 (15:20) 12.5 (15:20) 0 0 0 0 0
16-07-2020 30.1 (17:40) 21.8 (00:00) 25.9 11.67 (16:20) 10 (16:40) 0 0 0 0 0
15-07-2020 26.7 (13:00) 22.1 (00:00) 24.4 12.78 (15:20) 10.28 (15:30) 0 0 0 0 0

Gráficas

Temp. máximas Temp. mínimas Temp. medias Precipitaciones Rachas de viento máximas Velocidades máximas media en intervalos de 10 minutos

Datos horarios

Fecha y hora oficial Temperatura (ºC) Velocidad del viento (km/h) Dirección del viento Racha (km/h) Dirección de racha Precipitación (mm) Presión (hPa) Tendencia (hPa) Humedad (%)
2020-08-13 23:00:00 22.8 34 Norte 45 Nordeste 0 1014.7 1.6 80
2020-08-13 22:00:00 23 33 Nordeste 39 Norte 0 1014.1 1.4 80
2020-08-13 21:00:00 23.5 28 Nordeste 35 Nordeste 0 1013.4 0.7 82
2020-08-13 20:00:00 24.1 28 Nordeste 39 Nordeste 0 1013.1 0.4 78
2020-08-13 19:00:00 24.8 31 Nordeste 41 Nordeste 0 1012.7 -0.3 73
2020-08-13 18:00:00 25.6 28 Nordeste 39 Nordeste 0 1012.7 -0.9 70
2020-08-13 17:00:00 26 30 Nordeste 39 Nordeste 0 1012.7 -1.2 69
2020-08-13 16:00:00 26.3 30 Nordeste 39 Nordeste 0 1013 -1.3 67
2020-08-13 15:00:00 26.4 30 Nordeste 42 Nordeste 0 1013.6 -0.7 65
2020-08-13 14:00:00 26.6 31 Nordeste 41 Nordeste 0 1013.9 -- 64
2020-08-13 13:00:00 26.3 32 Nordeste 42 Nordeste 0 1014.3 -- 65
2020-08-13 12:00:00 25.5 32 Nordeste 41 Nordeste 0 1014.3 -- 67
2020-08-13 11:00:00 24.5 31 Nordeste 42 Norte 0 1013.8 -- 71
2020-08-13 10:00:00 23.5 32 Norte 45 Norte 0 1013 -- 72
2020-08-13 09:00:00 22.7 35 Norte 46 Norte 0 1012.7 -- 75
2020-08-13 08:00:00 21.9 35 Norte 46 Norte 0 1012.4 -- 78
2020-08-13 07:00:00 21.6 27 Norte 48 Norte 0 1012.1 -- 77
2020-08-13 06:00:00 21.9 39 Norte 50 Norte 0 1011.6 -- 78
2020-08-13 05:00:00 21.8 40 Norte 50 Norte 0 1011.3 -- 79
2020-08-13 04:00:00 22.1 37 Nordeste 48 Nordeste 0 1011.7 -- 80
2020-08-13 03:00:00 22.1 37 Norte 46 Norte 0 1011.8 -- 79
2020-08-13 02:00:00 22.2 37 Norte 50 Norte 0 1012.2 -- 79
2020-08-13 01:00:00 22.5 37 Nordeste 48 Nordeste 0 1013.1 -- 81
2020-08-13 00:00:00 22.6 35 Nordeste 46 Norte 0 1013.3 -- 80
2020-08-12 23:00:00 22.8 36 Nordeste 46 Nordeste 0 1013.3 -- 79
2020-08-12 22:00:00 23 33 Nordeste 42 Norte 0 1012.9 -- 80
2020-08-12 21:00:00 23.2 35 Nordeste 48 Nordeste 0 1012.3 -- 80
2020-08-12 20:00:00 23.9 39 Nordeste 52 Nordeste 0 1012 -- 76
2020-08-12 19:00:00 24.9 35 Nordeste 52 Nordeste 0 1011.8 -- 74
2020-08-12 18:00:00 25.4 40 Nordeste 50 Nordeste 0 1011.5 -- 70
2020-08-12 17:00:00 25.9 40 Nordeste 50 Nordeste 0 1011.8 -- 68
2020-08-12 16:00:00 26.5 34 Nordeste 46 Nordeste 0 1012.2 -- 67
2020-08-12 15:00:00 26.1 33 Nordeste 45 Nordeste 0 1012.7 -- 68
2020-08-12 14:00:00 26.6 33 Nordeste 46 Nordeste 0 1013.1 -- 64
2020-08-12 13:00:00 26.2 33 Nordeste 45 Nordeste 0 1013.2 -- 66
2020-08-12 12:00:00 25.6 35 Nordeste 45 Nordeste 0 1013.5 -- 66
2020-08-12 11:00:00 24.8 35 Nordeste 46 Nordeste 0 1013.3 -- 67
2020-08-12 10:00:00 23.6 38 Nordeste 50 Norte 0 1012.7 -- 71
2020-08-12 09:00:00 23 36 Norte 50 Norte 0 1012.6 -- 73
2020-08-12 08:00:00 22.7 35 Nordeste 50 Nordeste 0 1012.1 -- 75
2020-08-12 07:00:00 22.4 39 Norte 48 Norte 0 1011.6 -- 75
2020-08-12 06:00:00 22.3 33 Norte 45 Norte 0 1011.5 -- 78
2020-08-12 05:00:00 22.3 31 Norte 48 Norte 0 1011.2 -- 79
2020-08-12 04:00:00 22.2 30 Norte 46 Norte 0 1011.3 -- 78
2020-08-12 03:00:00 22.5 32 Norte 46 Norte 0 1011.4 -- 78
2020-08-12 02:00:00 22.3 36 Norte 48 Norte 0 1011.7 -- 78
2020-08-12 01:00:00 22.6 36 Norte 48 Nordeste 0 1012.3 -- 77
2020-08-12 00:00:00 22.6 28 Norte 46 Norte 0 1012.4 -- 76
2020-08-11 23:00:00 22.8 33 Norte 42 Norte 0 1012.5 -- 75
2020-08-11 22:00:00 23 30 Nordeste 45 Nordeste 0 1012.3 -- 80
2020-08-11 21:00:00 23.1 38 Nordeste 48 Nordeste 0 1011.6 -- 77
2020-08-11 20:00:00 23.7 32 Nordeste 46 Nordeste 0 1011.3 -- 76
2020-08-11 19:00:00 24.5 32 Nordeste 39 Nordeste 0 1011.2 -- 72
2020-08-11 18:00:00 25.6 31 Nordeste 41 Nordeste 0 1011.2 -- 68
2020-08-11 17:00:00 26 32 Nordeste 45 Nordeste 0 1010.9 -- 67
2020-08-11 16:00:00 26.4 34 Nordeste 42 Nordeste 0 1011 -- 66
2020-08-11 15:00:00 26.5 33 Nordeste 42 Nordeste 0 1011.3 -- 66
2020-08-11 14:00:00 26.4 31 Nordeste 41 Nordeste 0 1011.5 -- 63
2020-08-11 13:00:00 26.5 29 Nordeste 39 Nordeste 0 1011.6 -- 65
2020-08-11 12:00:00 25.9 27 Nordeste 42 Nordeste 0 1011.9 -- 64
2020-08-11 11:00:00 24.7 31 Nordeste 45 Norte 0 1012.2 -- 63
2020-08-11 10:00:00 24.1 32 Nordeste 45 Norte 0 1011.6 -- 66
2020-08-11 09:00:00 23.5 25 Norte 39 Norte 0 1011.1 -- 66
2020-08-11 08:00:00 22.9 28 Norte 41 Norte 0 1010.9 -- 71
2020-08-11 07:00:00 22.9 33 Norte 41 Nordeste 0 1010.5 -- 73
2020-08-11 06:00:00 22.9 25 Norte 39 Norte 0 1010.3 -- 71
2020-08-11 05:00:00 22.9 28 Norte 41 Norte 0 1009.8 -- 75
2020-08-11 04:00:00 23.2 29 Norte 45 Norte 0 1009.9 -- 74
2020-08-11 03:00:00 23 33 Norte 41 Norte 0 1010 -- 75
2020-08-11 02:00:00 23.3 26 Norte 37 Norte 0 1010.6 -- 74
2020-08-11 01:00:00 23.1 28 Norte 42 Nordeste 0 1011 -- 77
2020-08-11 00:00:00 23.5 25 Nordeste 39 Norte 0 1011.2 -- 77
2020-08-10 23:00:00 23.4 28 Norte 46 Norte 0 1011 -- 75
2020-08-10 22:00:00 23.6 30 Norte 37 Norte 0 1010.4 -- 73
2020-08-10 21:00:00 24.2 27 Norte 39 Norte 0 1009.7 -- 69
2020-08-10 20:00:00 25.6 30 Norte 46 Norte 0 1009.4 -- 63
2020-08-10 19:00:00 26.7 33 Norte 46 Norte 0 1009.2 -- 59
2020-08-10 18:00:00 25.8 33 Nordeste 45 Nordeste 0 1009.2 -- 69
2020-08-10 17:00:00 26 33 Nordeste 42 Nordeste 0 1009.5 -- 69
2020-08-10 16:00:00 26.3 32 Nordeste 41 Nordeste 0 1009.9 -- 67
2020-08-10 15:00:00 26.3 33 Nordeste 41 Nordeste 0 1010.6 -- 67
2020-08-10 14:00:00 26.1 31 Nordeste 41 Nordeste 0 1010.7 -- 68
2020-08-10 13:00:00 26.2 29 Nordeste 37 Nordeste 0 1010.9 -- 68
2020-08-10 12:00:00 25.7 30 Nordeste 37 Nordeste 0 1011 -- 67
2020-08-10 11:00:00 24.6 31 Nordeste 39 Nordeste 0 1011 -- 70
2020-08-10 10:00:00 23.5 32 Norte 41 Norte 0 1010.8 -- 72
2020-08-10 09:00:00 22.9 29 Norte 42 Norte 0 1010.9 -- 74
2020-08-10 08:00:00 22.6 26 Norte 35 Norte 0 1010.7 -- 79
2020-08-10 07:00:00 22.6 22 Norte 33 Nordeste 0 1010.6 -- 80
2020-08-10 06:00:00 22.4 26 Norte 33 Norte 0 1010.4 -- 81
2020-08-10 05:00:00 22.2 26 Norte 33 Norte 0 1010.4 -- 81
2020-08-10 04:00:00 22.3 24 Norte 33 Norte 0 1010.5 -- 81
2020-08-10 03:00:00 22.4 25 Norte 33 Norte 0 1011 -- 78
2020-08-10 02:00:00 22.4 24 Norte 33 Norte 0 1011.5 -- 77
2020-08-10 01:00:00 22.6 26 Norte 39 Norte 0 1012 -- 75
2020-08-10 00:00:00 22.7 30 Norte 41 Norte 0 1012.2 -- 75
2020-08-09 23:00:00 23 28 Norte 42 Norte 0 1012.4 -- 74
2020-08-09 22:00:00 23.5 28 Norte 41 Norte 0 1012.4 -- 72
2020-08-09 21:00:00 24 30 Norte 39 Norte 0 1012.1 -- 70
2020-08-09 20:00:00 25.3 29 Norte 42 Norte 0 1011.3 -- 66
2020-08-09 19:00:00 26.5 30 Norte 45 Norte 0 1011.2 -- 62
2020-08-09 18:00:00 25.6 36 Nordeste 46 Nordeste 0 1011.3 -- 72
2020-08-09 17:00:00 26.1 32 Nordeste 42 Nordeste 0 1011.6 -- 70
2020-08-09 16:00:00 26.4 34 Nordeste 46 Nordeste 0 1012 -- 69
2020-08-09 15:00:00 26.4 28 Nordeste 41 Nordeste 0 1012.6 -- 69
2020-08-09 14:00:00 26.9 32 Nordeste 41 Nordeste 0 1012.8 -- 65
2020-08-09 13:00:00 26.4 26 Nordeste 37 Nordeste 0 1013.5 -- 66
2020-08-09 12:00:00 25.6 29 Nordeste 37 Norte 0 1013.7 -- 68
2020-08-09 11:00:00 25.1 28 Nordeste 42 Norte 0 1013.9 -- 69
2020-08-09 10:00:00 23.9 30 Norte 45 Norte 0 1013.8 -- 73
2020-08-09 09:00:00 23.2 35 Norte 46 Norte 0 1013.3 -- 75
2020-08-09 08:00:00 22.6 35 Norte 45 Norte 0 1013.2 -- 77
2020-08-09 07:00:00 22.6 37 Norte 42 Norte 0 1012.9 -- 76
2020-08-09 06:00:00 22.8 26 Norte 33 Norte 0 1013.2 -- 76
2020-08-09 05:00:00 22.9 25 Norte 33 Norte 0 1013 -- 77
2020-08-09 04:00:00 22.9 24 Norte 33 Norte 0 1013.2 -- 78
2020-08-09 03:00:00 23.1 25 Norte 35 Norte 0 1013.5 -- 78
2020-08-09 02:00:00 23 26 Norte 35 Norte 0 1014 -- 77
2020-08-09 01:00:00 23.2 24 Norte 37 Norte 0 1014.4 -- 76
2020-08-09 00:00:00 23.2 31 Norte 39 Norte 0 1014.7 -- 76
2020-08-08 23:00:00 22.9 30 Norte 39 Norte 0 1014.8 -- 76
2020-08-08 22:00:00 23.3 24 Norte 39 Norte 0 1014.3 -- 75
2020-08-08 21:00:00 23.6 31 Norte 46 Noroeste 0 1014 -- 71
2020-08-08 20:00:00 25.2 31 Norte 46 Noroeste 0 1013.4 -- 65
2020-08-08 19:00:00 26.6 37 Norte 45 Norte 0 1012.7 -- 61
2020-08-08 18:00:00 25.5 32 Nordeste 45 Nordeste 0 1013.1 -- 72
2020-08-08 17:00:00 25.8 34 Nordeste 45 Nordeste 0 1013.2 -- 70
2020-08-08 16:00:00 26.1 33 Nordeste 42 Nordeste 0 1014.1 -- 69
2020-08-08 15:00:00 26.1 32 Nordeste 42 Nordeste 0 1014.6 -- 69
2020-08-08 14:00:00 26.1 28 Nordeste 39 Nordeste 0 1014.9 -- 68
2020-08-08 13:00:00 25.9 29 Nordeste 39 Nordeste 0 1015.3 -- 67
2020-08-08 12:00:00 25.6 30 Nordeste 41 Nordeste 0 1015.8 -- 65
2020-08-08 11:00:00 24.6 31 Nordeste 41 Norte 0 1016.1 -- 69
2020-08-08 10:00:00 23.4 31 Norte 42 Nordeste 0 1016 -- 71
2020-08-08 09:00:00 23.1 32 Nordeste 41 Norte 0 1015.9 -- 75
2020-08-08 08:00:00 22.7 28 Norte 41 Norte 0 1015.6 -- 73
2020-08-08 07:00:00 22.7 31 Norte 39 Norte 0 1015 -- 73
2020-08-08 06:00:00 22.8 26 Norte 37 Norte 0 1015.1 -- 73
2020-08-08 05:00:00 22.9 29 Norte 39 Norte 0 1014.9 -- 74
2020-08-08 04:00:00 23 24 Norte 39 Norte 0 1015.4 -- 74
2020-08-08 03:00:00 23 29 Norte 39 Norte 0 1015.4 -- 72
2020-08-08 02:00:00 23.2 27 Norte 41 Norte 0 1015.8 -- 72
2020-08-08 01:00:00 23.2 27 Norte 41 Nordeste 0 1016.2 -- 74
2020-08-08 00:00:00 23.5 30 Norte 39 Nordeste 0 1016.4 -- 73
2020-08-07 23:00:00 23.6 27 Norte 41 Norte 0 1016.2 -- 71
2020-08-07 22:00:00 23.7 32 Norte 41 Norte 0 1015.7 -- 71
2020-08-07 21:00:00 24.1 29 Norte 39 Norte 0 1015 -- 69
2020-08-07 20:00:00 25.3 29 Norte 41 Norte 0 1014.6 -- 64
2020-08-07 19:00:00 26.5 31 Norte 41 Norte 0 1014.1 -- 60
2020-08-07 18:00:00 25.8 29 Nordeste 39 Nordeste 0 1014 -- 69
2020-08-07 17:00:00 26 27 Nordeste 35 Nordeste 0 1014.1 -- 68
2020-08-07 16:00:00 26.4 27 Nordeste 37 Nordeste 0 1014.6 -- 64
2020-08-07 15:00:00 26.4 29 Nordeste 37 Nordeste 0 1014.9 -- 65
2020-08-07 14:00:00 26.1 28 Nordeste 35 Nordeste 0 1015.1 -- 65
2020-08-07 13:00:00 26.3 27 Nordeste 33 Nordeste 0 1015.3 -- 63
2020-08-07 12:00:00 25.9 24 Nordeste 33 Nordeste 0 1015.5 -- 63
2020-08-07 11:00:00 24.3 23 Nordeste 30 Norte 0 1015.5 -- 68
2020-08-07 10:00:00 23.7 22 Norte 33 Norte 0 1015.3 -- 71
2020-08-07 09:00:00 23.2 26 Norte 39 Norte 0 1014.9 -- 69
2020-08-07 08:00:00 22.9 27 Norte 37 Norte 0 1014.4 -- 74
2020-08-07 07:00:00 22.9 24 Norte 37 Norte 0 1014 -- 73
2020-08-07 06:00:00 22.8 29 Norte 39 Norte 0 1013.8 -- 71
2020-08-07 05:00:00 23.1 21 Norte 32 Norte 0 1013.8 -- 72
2020-08-07 04:00:00 23.2 17 Norte 32 Norte 0 1013.9 -- 74
2020-08-07 03:00:00 23.2 23 Norte 33 Norte 0 1014.3 -- 71
2020-08-07 02:00:00 23.5 24 Norte 37 Norte 0 1014.5 -- 70
2020-08-07 01:00:00 23.5 28 Norte 37 Norte 0 1014.6 -- 72
2020-08-07 00:00:00 23.6 26 Norte 41 Norte 0 1014.7 -- 71
2020-08-06 23:00:00 23.7 28 Norte 37 Norte 0 1014.4 -- 71
2020-08-06 22:00:00 23.8 30 Norte 39 Norte 0 1014.1 -- 70
2020-08-06 21:00:00 24.1 28 Norte 39 Norte 0 1013.4 -- 70
2020-08-06 20:00:00 25.2 29 Norte 39 Norte 0 1012.6 -- 63
2020-08-06 19:00:00 27.2 27 Norte 41 Norte 0 1012.1 -- 57
2020-08-06 18:00:00 28.5 24 Norte 39 Norte 0 1011.5 -- 53
2020-08-06 17:00:00 27.2 27 Nordeste 46 Nordeste 0 1011.3 -- 62
2020-08-06 16:00:00 27.4 32 Nordeste 45 Nordeste 0 1011.2 -- 62
2020-08-06 15:00:00 27 27 Nordeste 35 Nordeste 0 1011.6 -- 62
2020-08-06 14:00:00 26.9 24 Nordeste 35 Nordeste 0 1011.9 -- 59
2020-08-06 13:00:00 26.5 26 Nordeste 33 Nordeste 0 1012 -- 60
2020-08-06 12:00:00 25.9 24 Nordeste 39 Nordeste 0 1011.9 -- 60
2020-08-06 11:00:00 25.4 24 Norte 37 Norte 0 1011.8 -- 60
2020-08-06 10:00:00 24.4 26 Norte 39 Norte 0 1011.5 -- 61
2020-08-06 09:00:00 22.8 26 Norte 37 Norte 0 1011.1 -- 67
2020-08-06 08:00:00 22.3 22 Norte 32 Norte 0 1010.8 -- 70
2020-08-06 07:00:00 22.5 22 Norte 32 Norte 0 1010.4 -- 69
2020-08-06 06:00:00 22.6 23 Norte 33 Norte 0 1010.1 -- 71
2020-08-06 05:00:00 22.7 24 Norte 33 Norte 0 1010.2 -- 69
2020-08-06 04:00:00 22.7 20 Norte 39 Norte 0 1010 -- 70
2020-08-06 03:00:00 23 26 Norte 35 Norte 0 1010.3 -- 72
2020-08-06 02:00:00 23.2 27 Norte 37 Norte 0 1010.7 -- 71
2020-08-06 01:00:00 23.5 27 Norte 41 Norte 0 1011.1 -- 71
2020-08-06 00:00:00 23.6 24 Norte 41 Norte 0 1011.3 -- 71
2020-08-05 23:00:00 23.6 26 Norte 39 Norte 0 1011 -- 71
2020-08-05 22:00:00 23.7 31 Norte 42 Norte 0 1010.4 -- 70
2020-08-05 21:00:00 23.8 28 Norte 42 Norte 0 1010 -- 67
2020-08-05 20:00:00 25.1 32 Norte 42 Norte 0 1009.2 -- 62
2020-08-05 19:00:00 26.8 31 Norte 45 Norte 0 1009 -- 56
2020-08-05 18:00:00 28.1 25 Norte 42 Norte 0 1009 -- 51
2020-08-05 17:00:00 28.8 26 Norte 41 Nordeste 0 1009.2 -- 50
2020-08-05 16:00:00 27.2 32 Nordeste 42 Nordeste 0 1009.3 -- 61
2020-08-05 15:00:00 27.2 29 Nordeste 42 Nordeste 0 1009.8 -- 61
2020-08-05 14:00:00 26.6 29 Nordeste 41 Nordeste 0 1009.9 -- 63
2020-08-05 13:00:00 26.3 31 Nordeste 39 Nordeste 0 1010.1 -- 64
2020-08-05 12:00:00 25.7 23 Nordeste 30 Nordeste 0 1010.4 -- 66
2020-08-05 11:00:00 24.8 24 Nordeste 32 Nordeste 0 1010.2 -- 66
2020-08-05 10:00:00 23.8 20 Norte 32 Norte 0 1010 -- 70
2020-08-05 09:00:00 22.7 26 Norte 32 Norte 0 1009.7 -- 72
2020-08-05 08:00:00 21.8 19 Norte 30 Norte 0 1009.3 -- 76
2020-08-05 07:00:00 21.8 24 Norte 33 Norte 0 1009 -- 77
2020-08-05 06:00:00 21.9 25 Norte 33 Norte 0 1008.8 -- 76
2020-08-05 05:00:00 22 22 Norte 32 Norte 0 1008.8 -- 77
2020-08-05 04:00:00 22 19 Norte 32 Norte 0 1009 -- 80
2020-08-05 03:00:00 22.3 26 Norte 37 Norte 0 1009.3 -- 79
2020-08-05 02:00:00 22.4 25 Norte 37 Norte 0 1009.8 -- 78
2020-08-05 01:00:00 22.6 20 Norte 33 Norte 0 1010.1 -- 77
2020-08-05 00:00:00 22.9 24 Norte 39 Norte 0 1010 -- 76
2020-08-04 23:00:00 23.1 26 Norte 39 Norte 0 1010 -- 75
2020-08-04 22:00:00 23.6 30 Norte 41 Norte 0 1009.7 -- 73
2020-08-04 21:00:00 24.5 33 Norte 41 Norte 0 1009.2 -- 71
2020-08-04 20:00:00 25.6 30 Norte 41 Norte 0 1008.7 -- 69
2020-08-04 19:00:00 25.4 26 Nordeste 39 Nordeste 0 1008.5 -- 76
2020-08-04 18:00:00 25.9 30 Nordeste 45 Nordeste 0 1008.6 -- 74
2020-08-04 17:00:00 27.2 32 Nordeste 42 Nordeste 0 1008.5 -- 68
2020-08-04 16:00:00 28.4 29 Nordeste 39 Norte 0 1008.9 -- 62
2020-08-04 15:00:00 28.7 30 Nordeste 41 Norte 0 1009.3 -- 60
2020-08-04 14:00:00 28.6 32 Nordeste 45 Nordeste 0 1009.6 -- 59
2020-08-04 13:00:00 28 31 Nordeste 41 Norte 0 1010.1 -- 61
2020-08-04 12:00:00 26.5 32 Nordeste 42 Nordeste 0 1010.4 -- 67
2020-08-04 11:00:00 25.7 33 Nordeste 42 Nordeste 0 1010.4 -- 69
2020-08-04 10:00:00 24.9 33 Norte 45 Norte 0 1010.7 -- 73
2020-08-04 09:00:00 23.7 24 Norte 32 Norte 0 1010.8 -- 79
2020-08-04 08:00:00 22.3 20 Norte 30 Norte 0 1010.6 -- 82
2020-08-04 07:00:00 22.2 23 Norte 35 Norte 0 1010 -- 81
2020-08-04 06:00:00 22.3 27 Norte 37 Norte 0 1009.8 -- 81
2020-08-04 05:00:00 22.6 27 Norte 41 Norte 0 1009.6 -- 77
2020-08-04 04:00:00 22.8 34 Norte 42 Norte 0 1008.9 -- 75
2020-08-04 03:00:00 23.2 30 Norte 42 Norte 0 1009.8 -- 71
2020-08-04 02:00:00 24.4 31 Norte 46 Norte 0 1010.4 -- 58
2020-08-04 01:00:00 24.8 36 Norte 45 Norte 0 1010.9 -- 52
2020-08-04 00:00:00 24.5 34 Norte 42 Norte 0 1011.2 -- 58
2020-08-03 23:00:00 24.3 29 Norte 39 Norte 0 1011.5 -- 63
2020-08-03 22:00:00 24.9 30 Norte 45 Norte 0 1011.3 -- 61
2020-08-03 21:00:00 25.8 31 Norte 45 Norte 0 1010.9 -- 57
2020-08-03 20:00:00 26.9 36 Norte 46 Norte 0 1010.5 -- 59
2020-08-03 19:00:00 27.4 31 Norte 42 Norte 0 1010.8 -- 60
2020-08-03 18:00:00 25.9 26 Nordeste 41 Nordeste 0 1011.2 -- 75
2020-08-03 17:00:00 26.3 32 Nordeste 41 Nordeste 0 1011.6 -- 72
2020-08-03 16:00:00 26.4 33 Nordeste 42 Nordeste 0 1011.9 -- 72
2020-08-03 15:00:00 26.5 35 Nordeste 46 Nordeste 0 1012.3 -- 72
2020-08-03 14:00:00 26.6 34 Nordeste 45 Nordeste 0 1012.6 -- 71
2020-08-03 13:00:00 26.5 30 Nordeste 39 Nordeste 0 1013.1 -- 72
2020-08-03 12:00:00 27.3 28 Nordeste 41 Norte 0 1013.2 -- 64
2020-08-03 11:00:00 28.1 35 Norte 46 Norte 0 1013 -- 57
2020-08-03 10:00:00 26.8 33 Norte 46 Norte 0 1012.7 -- 60
2020-08-03 09:00:00 25.3 31 Norte 42 Norte 0 1012.8 -- 67
2020-08-03 08:00:00 24.5 27 Norte 39 Noroeste 0 1012.5 -- 66
2020-08-03 07:00:00 24.1 29 Noroeste 41 Noroeste 0 1012.1 -- 68
2020-08-03 06:00:00 24.4 26 Norte 37 Norte 0 1012.2 -- 65
2020-08-03 05:00:00 24.6 24 Norte 35 Norte 0 1012.5 -- 64
2020-08-03 04:00:00 24.6 26 Norte 33 Norte 0 1012.9 -- 66
2020-08-03 03:00:00 25.1 28 Norte 39 Norte 0 1013.1 -- 62
2020-08-03 02:00:00 25.8 25 Norte 35 Norte 0 1013.4 -- 58
2020-08-03 01:00:00 25.6 26 Norte 41 Norte 0 1013.6 -- 59
2020-08-03 00:00:00 25.5 22 Norte 32 Norte 0 1013.9 -- 62
2020-08-02 23:00:00 25.8 17 Norte 28 Norte 0 1013.8 -- 61
2020-08-02 22:00:00 26.1 21 Norte 35 Norte 0 1013.4 -- 65
2020-08-02 21:00:00 26.9 24 Norte 33 Norte 0 1012.9 -- 65
2020-08-02 20:00:00 27.4 24 Nordeste 33 Nordeste 0 1012.3 -- 69
2020-08-02 19:00:00 27 26 Nordeste 39 Nordeste 0 1012.2 -- 73
2020-08-02 18:00:00 28.4 28 Nordeste 39 Nordeste 0 1012.1 -- 67
2020-08-02 17:00:00 29.2 27 Nordeste 41 Nordeste 0 1012.3 -- 64
2020-08-02 16:00:00 28.9 26 Nordeste 35 Nordeste 0 1012.8 -- 67
2020-08-02 15:00:00 28.6 27 Nordeste 37 Nordeste 0 1013.3 -- 66
2020-08-02 14:00:00 29.4 31 Nordeste 39 Nordeste 0 1013.7 -- 60
2020-08-02 13:00:00 29.1 31 Nordeste 39 Nordeste 0 1014 -- 60
2020-08-02 12:00:00 29.2 29 Norte 45 Norte 0 1014.1 -- 57
2020-08-02 11:00:00 28.5 29 Norte 41 Norte 0 1014 -- 59
2020-08-02 10:00:00 27.2 26 Norte 39 Norte 0 1013.9 -- 56
2020-08-02 09:00:00 24.8 20 Norte 30 Norte 0 1013.7 -- 69
2020-08-02 08:00:00 24.3 17 Norte 24 Norte 0 1013.4 -- 69
2020-08-02 07:00:00 24 13 Norte 24 Noroeste 0 1012.9 -- 69
2020-08-02 06:00:00 23.1 14 Norte 22 Norte 0 1012.7 -- 74
2020-08-02 05:00:00 23 15 Norte 30 Norte 0 1012.9 -- 80
2020-08-02 04:00:00 23.1 22 Norte 30 Norte 0 1013 -- 83
2020-08-02 03:00:00 23.3 20 Norte 26 Norte 0 1013.3 -- 82
2020-08-02 02:00:00 23.5 16 Norte 26 Norte 0 1013.9 -- 83
2020-08-02 01:00:00 23.8 21 Norte 28 Norte 0 1014.6 -- 82
2020-08-02 00:00:00 24 22 Norte 30 Norte 0 1014.8 -- 79
2020-08-01 23:00:00 24.3 22 Norte 28 Norte 0 1014.6 -- 78
2020-08-01 22:00:00 24.3 15 Norte 32 Nordeste 0 1014.1 -- 80
2020-08-01 21:00:00 23.8 26 Nordeste 42 Nordeste 0 1013.6 -- 87
2020-08-01 20:00:00 24.3 18 Nordeste 24 Nordeste 0 1013.1 -- 84
2020-08-01 19:00:00 25 15 Nordeste 22 Nordeste 0 1012.8 -- 79
2020-08-01 18:00:00 25.3 18 Nordeste 28 Nordeste 0 1013.2 -- 77
2020-08-01 17:00:00 25.8 23 Nordeste 30 Nordeste 0 1013.6 -- 75
2020-08-01 16:00:00 26.1 21 Nordeste 28 Nordeste 0 1014.2 -- 73
2020-08-01 15:00:00 26.2 22 Nordeste 28 Nordeste 0 1014.6 -- 72
2020-08-01 14:00:00 25.8 18 Nordeste 28 Nordeste 0 1015 -- 73
2020-08-01 13:00:00 25.5 21 Nordeste 28 Nordeste 0 1014.8 -- 74
2020-08-01 12:00:00 24.5 21 Nordeste 26 Nordeste 0 1015 -- 77
2020-08-01 11:00:00 24.2 19 Nordeste 26 Norte 0 1014.9 -- 79
2020-08-01 10:00:00 24.2 20 Nordeste 26 Nordeste 0 1014.7 -- 79
2020-08-01 09:00:00 23.1 19 Nordeste 26 Nordeste 0 1014.5 -- 83
2020-08-01 08:00:00 22.7 19 Nordeste 24 Nordeste 0 1013.9 -- 86
2020-08-01 07:00:00 22.6 14 Nordeste 22 Norte 0 1013.9 -- 87
2020-08-01 06:00:00 22.8 16 Norte 24 Norte 0 1013.7 -- 82
2020-08-01 05:00:00 22.6 15 Norte 21 Norte 0 1013.3 -- 83
2020-08-01 04:00:00 22.7 14 Norte 22 Norte 0 1013.4 -- 82
2020-08-01 03:00:00 22.7 18 Norte 28 Nordeste 0 1013.6 -- 82
2020-08-01 02:00:00 22.7 21 Norte 26 Nordeste 0 1014.1 -- 86
2020-08-01 01:00:00 22.7 19 Nordeste 30 Nordeste 0 1014.9 -- 84
2020-08-01 00:00:00 22.9 21 Nordeste 30 Nordeste 0 1015.2 -- 85
2020-07-31 23:00:00 23.1 22 Nordeste 30 Nordeste 0 1015.2 -- 85
2020-07-31 22:00:00 23.2 18 Nordeste 24 Nordeste 0 1014.7 -- 84
2020-07-31 21:00:00 23.4 17 Nordeste 26 Nordeste 0 1014 -- 83
2020-07-31 20:00:00 23.8 22 Nordeste 28 Nordeste 0 1013.1 -- 81
2020-07-31 19:00:00 24.6 20 Nordeste 28 Nordeste 0 1012.6 -- 77
2020-07-31 18:00:00 25 22 Nordeste 28 Nordeste 0 1012.5 -- 74
2020-07-31 17:00:00 25.5 22 Nordeste 32 Nordeste 0 1012.5 -- 71
2020-07-31 16:00:00 25.5 23 Nordeste 28 Nordeste 0 1012.4 -- 70
2020-07-31 15:00:00 25.6 21 Nordeste 26 Nordeste 0 1012.7 -- 68
2020-07-31 14:00:00 25.4 18 Nordeste 24 Nordeste 0 1012.9 -- 70
2020-07-31 13:00:00 25.2 17 Nordeste 24 Nordeste 0 1013.2 -- 68
2020-07-31 12:00:00 24.9 20 Nordeste 30 Norte 0 1013.4 -- 68
2020-07-31 11:00:00 24.1 18 Norte 26 Norte 0 1013.3 -- 70
2020-07-31 10:00:00 23.4 18 Norte 26 Nordeste 0 1013 -- 73
2020-07-31 09:00:00 22.7 16 Norte 24 Norte 0 1012.9 -- 77
2020-07-31 08:00:00 22.3 15 Nordeste 24 Nordeste 0 1012.4 -- 81
2020-07-31 07:00:00 22 14 Nordeste 18 Nordeste 0 1012 -- 80
2020-07-31 06:00:00 21.8 12 Norte 15 Norte 0 1011.5 -- 79
2020-07-31 05:00:00 21.9 14 Norte 22 Nordeste 0 1011.2 -- 79
2020-07-31 04:00:00 22.1 16 Norte 26 Nordeste 0 1010.9 -- 79
2020-07-31 03:00:00 22.3 22 Norte 33 Nordeste 0 1010.7 -- 78
2020-07-31 02:00:00 22.5 25 Nordeste 33 Nordeste 0 1011.5 -- 80
2020-07-31 01:00:00 22.4 26 Nordeste 37 Nordeste 0 1011.9 -- 80
2020-07-31 00:00:00 22.6 30 Nordeste 37 Nordeste 0 1012.4 -- 79
2020-07-30 23:00:00 22.6 29 Nordeste 35 Nordeste 0 1012.3 -- 81
2020-07-30 22:00:00 22.7 26 Nordeste 33 Nordeste 0 1011.4 -- 82
2020-07-30 21:00:00 22.9 28 Nordeste 33 Nordeste 0 1010.8 -- 81
2020-07-30 20:00:00 23.5 25 Nordeste 37 Nordeste 0 1010.3 -- 78
2020-07-30 19:00:00 24.3 28 Nordeste 37 Nordeste 0 1009.7 -- 74
2020-07-30 18:00:00 25.2 27 Nordeste 35 Nordeste 0 1009.8 -- 70
2020-07-30 17:00:00 25.4 27 Nordeste 33 Nordeste 0 1009.9 -- 69
2020-07-30 16:00:00 25.6 26 Nordeste 35 Nordeste 0 1009.9 -- 69
2020-07-30 15:00:00 25.7 28 Nordeste 37 Nordeste 0 1009.8 -- 67
2020-07-30 14:00:00 25.6 28 Nordeste 39 Nordeste 0 1010.3 -- 67
2020-07-30 13:00:00 25.4 32 Nordeste 39 Nordeste 0 1010.3 -- 67
2020-07-30 12:00:00 25.1 27 Nordeste 33 Nordeste 0 1010.8 -- 68
2020-07-30 11:00:00 23.6 19 Nordeste 35 Norte 0 1011 -- 72
2020-07-30 10:00:00 23.5 28 Norte 35 Norte 0 1010 -- 70
2020-07-30 09:00:00 22.5 23 Nordeste 30 Nordeste 0 1010.6 -- 76
2020-07-30 08:00:00 22 25 Nordeste 39 Nordeste 0 1009.9 -- 76
2020-07-30 07:00:00 21.9 28 Nordeste 37 Nordeste 0 1008.8 -- 77
2020-07-30 06:00:00 21.8 25 Norte 37 Nordeste 0 1008.8 -- 77
2020-07-30 05:00:00 22.1 24 Norte 41 Norte 0 1008.6 -- 74
2020-07-30 04:00:00 22.1 31 Norte 41 Norte 0 1008.7 -- 74
2020-07-30 03:00:00 21.9 28 Norte 41 Norte 0 1008.9 -- 75
2020-07-30 02:00:00 22.2 35 Norte 41 Nordeste 0 1009.6 -- 75
2020-07-30 01:00:00 22.3 28 Norte 42 Norte 0 1010.5 -- 76
2020-07-30 00:00:00 22.6 34 Norte 45 Norte 0 1010.2 -- 78
2020-07-29 23:00:00 22.7 33 Norte 45 Norte 0 1010 -- 78
2020-07-29 22:00:00 23.1 33 Norte 42 Nordeste 0 1009.5 -- 77
2020-07-29 21:00:00 24 30 Norte 39 Norte 0 1009.1 -- 70
2020-07-29 20:00:00 23.9 32 Nordeste 45 Nordeste 0 1008.8 -- 77
2020-07-29 19:00:00 24.6 33 Nordeste 42 Nordeste 0 1008.6 -- 74
2020-07-29 18:00:00 25.2 35 Nordeste 45 Nordeste 0 1009 -- 71
2020-07-29 17:00:00 25.8 33 Nordeste 45 Nordeste 0 1009.3 -- 70
2020-07-29 16:00:00 26 33 Nordeste 45 Nordeste 0 1009.8 -- 68
2020-07-29 15:00:00 26.2 36 Nordeste 46 Nordeste 0 1010.1 -- 66
2020-07-29 14:00:00 26.1 33 Nordeste 42 Nordeste 0 1010.8 -- 67
2020-07-29 13:00:00 26.1 33 Nordeste 41 Nordeste 0 1011.2 -- 66
2020-07-29 12:00:00 25.5 32 Nordeste 42 Nordeste 0 1011.3 -- 68
2020-07-29 11:00:00 25 30 Nordeste 42 Norte 0 1011.3 -- 70
2020-07-29 10:00:00 23.6 30 Norte 48 Norte 0 1011.5 -- 74
2020-07-29 09:00:00 22.9 33 Norte 46 Norte 0 1011.3 -- 73
2020-07-29 08:00:00 22.5 33 Norte 50 Norte 0 1010.9 -- 76
2020-07-29 07:00:00 22.4 32 Norte 50 Norte 0 1010.6 -- 78
2020-07-29 06:00:00 22.1 31 Norte 48 Nordeste 0 1010.3 -- 79
2020-07-29 05:00:00 21.9 35 Norte 54 Norte 0 1010.1 -- 79
2020-07-29 04:00:00 21.8 33 Norte 46 Norte 0 1010.3 -- 81
2020-07-29 03:00:00 22.2 37 Norte 48 Norte 0 1010.7 -- 80
2020-07-29 02:00:00 22.5 32 Norte 46 Nordeste 0 1011.1 -- 81
2020-07-29 01:00:00 22.4 37 Norte 48 Norte 0 1011.8 -- 81
2020-07-29 00:00:00 22.6 39 Norte 50 Norte 0 1012.2 -- 81
2020-07-28 23:00:00 22.6 37 Nordeste 48 Nordeste 0 1012 -- 83
2020-07-28 22:00:00 23 33 Norte 42 Norte 0 1011.9 -- 82
2020-07-28 21:00:00 23.5 28 Nordeste 41 Nordeste 0 1011.6 -- 81
2020-07-28 20:00:00 23.9 32 Nordeste 42 Nordeste 0 1011.1 -- 81
2020-07-28 19:00:00 24.7 33 Norte 48 Nordeste 0 1011.4 -- 76
2020-07-28 18:00:00 25.1 36 Nordeste 48 Nordeste 0 1011.7 -- 74
2020-07-28 17:00:00 25.8 32 Nordeste 46 Nordeste 0 1011.9 -- 72
2020-07-28 16:00:00 26 33 Nordeste 45 Nordeste 0 1012.4 -- 70
2020-07-28 15:00:00 26 32 Nordeste 48 Nordeste 0 1012.7 -- 70
2020-07-28 14:00:00 26 33 Nordeste 46 Nordeste 0 1013 -- 70
2020-07-28 13:00:00 25.6 35 Nordeste 46 Nordeste 0 1013.3 -- 71
2020-07-28 12:00:00 25.4 34 Nordeste 45 Nordeste 0 1013.2 -- 74
2020-07-28 11:00:00 24.6 35 Nordeste 42 Norte 0 1012.7 -- 75
2020-07-28 10:00:00 23.4 30 Norte 42 Norte 0 1012.9 -- 78
2020-07-28 09:00:00 22.8 32 Norte 42 Nordeste 0 1012.5 -- 82
2020-07-28 08:00:00 21.9 27 Norte 39 Nordeste 0 1012.3 -- 86
2020-07-28 07:00:00 22.2 30 Nordeste 37 Nordeste 0 1011.9 -- 87
2020-07-28 06:00:00 22.3 22 Norte 35 Nordeste 0 1011.9 -- 83
2020-07-28 05:00:00 22.4 30 Nordeste 37 Norte 0 1011.3 -- 87
2020-07-28 04:00:00 22.4 26 Nordeste 39 Nordeste 0 1012 -- 86
2020-07-28 03:00:00 22.5 30 Norte 41 Nordeste 0 1012.2 -- 86
2020-07-28 02:00:00 22.5 30 Nordeste 41 Norte 0 1012.8 -- 85
2020-07-28 01:00:00 22.6 33 Norte 41 Norte 0 1013 -- 83
2020-07-28 00:00:00 22.7 26 Nordeste 33 Nordeste 0 1013.6 -- 86
2020-07-27 23:00:00 22.9 30 Norte 42 Norte 0 1013.2 -- 82
2020-07-27 22:00:00 23.3 27 Nordeste 37 Nordeste 0 1012.9 -- 81
2020-07-27 21:00:00 23.8 26 Nordeste 39 Norte 0 1012.2 -- 82
2020-07-27 20:00:00 23.9 30 Nordeste 39 Nordeste 0 1011.3 -- 83
2020-07-27 19:00:00 24.5 26 Nordeste 42 Nordeste 0 1011.4 -- 79
2020-07-27 18:00:00 25.4 32 Nordeste 42 Nordeste 0 1011 -- 75
2020-07-27 17:00:00 25.7 31 Nordeste 41 Nordeste 0 1011.1 -- 74
2020-07-27 16:00:00 26 28 Nordeste 41 Nordeste 0 1011.3 -- 72
2020-07-27 15:00:00 25.7 26 Nordeste 35 Nordeste 0 1012 -- 72
2020-07-27 14:00:00 25.7 27 Nordeste 35 Nordeste 0 1012.4 -- 71
2020-07-27 13:00:00 25.4 30 Nordeste 39 Nordeste 0 1012.5 -- 72
2020-07-27 12:00:00 24.8 31 Nordeste 42 Nordeste 0 1012.1 -- 74
2020-07-27 11:00:00 24.4 35 Norte 45 Norte 0 1012 -- 71
2020-07-27 08:00:00 21.8 30 Nordeste 39 Nordeste 0 1011.6 1.2 85
2020-07-27 07:00:00 21.2 21 Norte 30 Norte 0 1010.9 0.3 83
2020-07-27 06:00:00 21.6 20 Norte 41 Norte 0 1010.5 -0.5 82
2020-07-27 05:00:00 22 27 Norte 39 Norte 0 1010.4 -1 80
2020-07-27 04:00:00 22.3 28 Norte 45 Norte 0 1010.6 -1.4 79
2020-07-27 03:00:00 22.4 32 Norte 45 Norte 0 1011 -0.9 79
2020-07-27 02:00:00 22.5 32 Norte 45 Norte 0 1011.4 -0.5 82
2020-07-27 01:00:00 22.5 31 Nordeste 41 Nordeste 0 1012 0.7 82
2020-07-27 00:00:00 22.5 26 Nordeste 39 Norte 0 1011.9 1.6 85
2020-07-26 23:00:00 22.8 25 Norte 37 Norte 0 1011.9 1.9 76
2020-07-26 22:00:00 23.4 29 Norte 39 Norte 0 1011.3 1.4 74
2020-07-26 21:00:00 24.3 30 Norte 45 Norte 0 1010.3 0.1 68
2020-07-26 20:00:00 23.9 31 Nordeste 39 Nordeste 0 1010 -0.5 78
2020-07-26 19:00:00 24.8 30 Nordeste 37 Nordeste 0 1009.9 -0.9 75
2020-07-26 18:00:00 25.2 30 Nordeste 37 Nordeste 0 1010.2 -0.9 70
2020-07-26 17:00:00 25.7 28 Nordeste 39 Norte 0 1010.5 -1 69
2020-07-26 16:00:00 26.1 27 Nordeste 39 Nordeste 0 1010.8 -0.8 65
2020-07-26 15:00:00 26.1 29 Nordeste 41 Nordeste 0 1011.1 -0.6 66
2020-07-26 14:00:00 26.2 30 Nordeste 39 Nordeste 0 1011.5 -0.2 65
2020-07-26 13:00:00 26 28 Nordeste 39 Nordeste 0 1011.6 0 68
2020-07-26 12:00:00 25.2 31 Nordeste 41 Norte 0 1011.7 0.3 69
2020-07-26 11:00:00 24 32 Nordeste 42 Norte 0 1011.7 0.6 73
2020-07-26 10:00:00 23.6 31 Norte 46 Norte 0 1011.6 0.7 72
2020-07-26 09:00:00 22.9 35 Norte 45 Norte 0 1011.4 -- 72
2020-07-26 08:00:00 22.6 33 Norte 42 Norte 0 1011.1 -- 76
2020-07-26 07:00:00 22.4 32 Norte 45 Norte 0 1010.9 -- 75
2020-07-26 06:00:00 22.5 34 Norte 45 Nordeste 0 1010.5 -- 78
2020-07-26 05:00:00 22.6 26 Norte 39 Norte 0 1010.7 -- 76
2020-07-26 04:00:00 22.7 30 Norte 41 Norte 0 1010.6 -- 76
2020-07-26 03:00:00 22.6 30 Norte 39 Norte 0 1011.1 -- 80
2020-07-26 02:00:00 22.8 26 Norte 35 Norte 0 1011.9 -- 80
2020-07-26 01:00:00 23 23 Norte 32 Norte 0 1012.2 -- 77
2020-07-26 00:00:00 22.6 18 Norte 30 Norte 0 1012.7 -- 80
2020-07-25 23:00:00 23.1 23 Norte 33 Norte 0 1012.6 -- 77
2020-07-25 22:00:00 23.5 24 Norte 33 Norte 0 1012 -- 76
2020-07-25 21:00:00 24.1 26 Norte 39 Norte 0 1011.1 -- 76
2020-07-25 20:00:00 26.2 32 Norte 45 Norte 0 1010.8 -- 63
2020-07-25 19:00:00 27.8 32 Norte 50 Norte 0 1010.4 -- 56
2020-07-25 18:00:00 28.4 37 Norte 46 Norte 0 1010.3 -- 55
2020-07-25 17:00:00 25.9 34 Nordeste 45 Nordeste 0 1010.7 -- 72
2020-07-25 16:00:00 26.2 32 Nordeste 42 Nordeste 0 1010.9 -- 71
2020-07-25 15:00:00 26.1 32 Nordeste 41 Nordeste 0 1011 -- 72
2020-07-25 14:00:00 26 30 Nordeste 39 Nordeste 0 1011.6 -- 72
2020-07-25 13:00:00 25.9 28 Nordeste 35 Nordeste 0 1012 -- 73
2020-07-25 12:00:00 26 24 Nordeste 35 Nordeste 0 1012 -- 70
2020-07-25 11:00:00 26 26 Nordeste 42 Norte 0 1011.8 -- 65
2020-07-25 10:00:00 25.8 29 Norte 41 Norte 0 1011.6 -- 62
2020-07-25 09:00:00 24.2 27 Norte 35 Norte 0 1011.3 -- 69
2020-07-25 08:00:00 22.7 22 Norte 30 Norte 0 1010.7 -- 69
2020-07-25 07:00:00 22.4 17 Norte 33 Norte 0 1010.2 -- 65
2020-07-25 06:00:00 22.5 22 Norte 35 Noroeste 0 1010.1 -- 71
2020-07-25 05:00:00 22.4 24 Norte 33 Norte 0 1010 -- 73
2020-07-25 04:00:00 22.5 29 Norte 37 Norte 0 1010.2 -- 79
2020-07-25 03:00:00 23.1 22 Norte 35 Norte 0 1010.4 -- 72
2020-07-25 02:00:00 23.5 28 Norte 41 Noroeste 0 1010.6 -- 70
2020-07-25 01:00:00 24 24 Noroeste 33 Noroeste 0 1011.1 -- 66
2020-07-25 00:00:00 23.6 27 Noroeste 37 Noroeste 0 1011.4 -- 71
2020-07-24 23:00:00 24 28 Noroeste 35 Noroeste 0 1011.6 -- 70
2020-07-24 22:00:00 24.6 26 Noroeste 35 Norte 0 1011.3 -- 67
2020-07-24 21:00:00 25.3 27 Noroeste 45 Noroeste 0 1011.1 -- 66
2020-07-24 20:00:00 26.7 31 Norte 41 Norte 0 1010.8 -- 62
2020-07-24 19:00:00 28.2 29 Norte 42 Norte 0 1010.5 -- 57
2020-07-24 18:00:00 29.4 28 Norte 39 Nordeste 0 1010.7 -- 55
2020-07-24 17:00:00 27.3 26 Nordeste 39 Nordeste 0 1010.8 -- 69
2020-07-24 16:00:00 26.2 27 Nordeste 35 Nordeste 0 1011.1 -- 74
2020-07-24 15:00:00 26.1 25 Nordeste 33 Nordeste 0 1011.5 -- 74
2020-07-24 14:00:00 26 24 Nordeste 35 Nordeste 0 1011.7 -- 74
2020-07-24 13:00:00 25.6 30 Nordeste 37 Nordeste 0 1011.8 -- 74
2020-07-24 12:00:00 25.4 28 Nordeste 35 Nordeste 0 1011.8 -- 75
2020-07-24 11:00:00 24.9 26 Nordeste 33 Nordeste 0 1012 -- 75
2020-07-24 10:00:00 24 24 Nordeste 30 Nordeste 0 1011.7 -- 78
2020-07-24 09:00:00 23.3 22 Nordeste 28 Norte 0 1011.6 -- 81
2020-07-24 08:00:00 21.6 21 Norte 32 Norte 0 1011.2 -- 84
2020-07-24 07:00:00 21.3 24 Norte 37 Norte 0 1010.7 -- 84
2020-07-24 06:00:00 21.6 26 Norte 35 Norte 0 1010.8 -- 85
2020-07-24 05:00:00 21.4 25 Norte 33 Norte 0 1010.7 -- 84
2020-07-24 04:00:00 21.6 24 Norte 30 Norte 0 1011 -- 83
2020-07-24 03:00:00 21.8 22 Norte 32 Norte 0 1011.3 -- 82
2020-07-24 02:00:00 21.9 23 Norte 32 Norte 0 1012 -- 81
2020-07-24 01:00:00 22.1 20 Norte 33 Norte 0 1012.5 -- 81
2020-07-24 00:00:00 22.4 24 Norte 32 Norte 0 1012.9 -- 80
2020-07-23 23:00:00 22.7 23 Norte 32 Norte 0 1012.9 -- 79
2020-07-23 22:00:00 22.7 26 Nordeste 35 Nordeste 0 1012.6 -- 88
2020-07-23 21:00:00 23 29 Nordeste 41 Nordeste 0 1012.3 -- 86
2020-07-23 20:00:00 23.9 28 Nordeste 39 Nordeste 0 1012.1 -- 82
2020-07-23 19:00:00 24.8 30 Nordeste 42 Nordeste 0 1011.7 -- 77
2020-07-23 18:00:00 25.2 31 Nordeste 41 Nordeste 0 1011.9 -- 76
2020-07-23 17:00:00 25.8 31 Nordeste 39 Nordeste 0 1012.2 -- 73
2020-07-23 16:00:00 25.9 32 Nordeste 42 Nordeste 0 1012.6 -- 71
2020-07-23 15:00:00 26 33 Nordeste 39 Nordeste 0 1013.1 -- 71
2020-07-23 14:00:00 25.6 31 Nordeste 41 Nordeste 0 1013.5 -- 72
2020-07-23 13:00:00 25.4 33 Nordeste 42 Nordeste 0 1014 -- 73
2020-07-23 12:00:00 25.2 33 Nordeste 41 Nordeste 0 1013.9 -- 74
2020-07-23 11:00:00 24.6 27 Nordeste 35 Nordeste 0 1013.6 -- 75
2020-07-23 10:00:00 24 29 Nordeste 39 Nordeste 0 1013.4 -- 78
2020-07-23 09:00:00 22.7 24 Norte 32 Nordeste 0 1013.4 -- 81
2020-07-23 08:00:00 21.6 25 Norte 32 Norte 0 1012.7 -- 83
2020-07-23 07:00:00 21.2 19 Norte 28 Norte 0 1012.6 -- 83
2020-07-23 06:00:00 21.5 20 Norte 30 Norte 0 1012.4 -- 83
2020-07-23 05:00:00 21.6 22 Norte 30 Norte 0 1012.2 -- 83
2020-07-23 04:00:00 21.8 22 Norte 30 Norte 0 1012.4 -- 81
2020-07-23 03:00:00 21.7 18 Norte 30 Norte 0 1013.1 -- 82
2020-07-23 02:00:00 21.9 19 Norte 26 Norte 0 1013.6 -- 82
2020-07-23 01:00:00 22.2 18 Norte 28 Nordeste 0 1014.1 -- 81
2020-07-23 00:00:00 22.6 18 Norte 30 Norte 0 1014.3 -- 79
2020-07-22 23:00:00 22.9 23 Norte 30 Norte 0 1013.9 -- 79
2020-07-22 22:00:00 23.2 22 Norte 37 Nordeste 0 1013.5 -- 85
2020-07-22 21:00:00 23.1 28 Nordeste 39 Nordeste 0 1013.1 -- 84
2020-07-22 20:00:00 23.8 32 Nordeste 41 Nordeste 0 1012.8 -- 80
2020-07-22 19:00:00 24.8 31 Nordeste 41 Nordeste 0 1012.4 -- 75
2020-07-22 18:00:00 25.4 31 Nordeste 41 Nordeste 0 1012.7 -- 72
2020-07-22 17:00:00 25.8 31 Nordeste 39 Nordeste 0 1012.9 -- 71
2020-07-22 16:00:00 25.9 27 Nordeste 35 Nordeste 0 1013.1 -- 71
2020-07-22 15:00:00 26.1 26 Nordeste 33 Nordeste 0 1013.3 -- 69
2020-07-22 14:00:00 25.8 26 Nordeste 35 Nordeste 0 1013.6 -- 69
2020-07-22 13:00:00 25.4 25 Nordeste 37 Nordeste 0 1014.1 -- 69
2020-07-22 12:00:00 25.6 30 Nordeste 37 Nordeste 0 1014 -- 69
2020-07-22 11:00:00 24.8 29 Nordeste 39 Nordeste 0 1013.9 -- 69
2020-07-22 10:00:00 23.5 32 Nordeste 41 Nordeste 0 1013.7 -- 72
2020-07-22 09:00:00 22.6 31 Nordeste 39 Nordeste 0 1013.6 -- 78
2020-07-22 08:00:00 22.2 28 Norte 37 Norte 0 1013.2 -- 78
2020-07-22 07:00:00 22 28 Nordeste 39 Norte 0 1012.6 -- 78
2020-07-22 06:00:00 22.2 25 Norte 37 Norte 0 1012.5 -- 78
2020-07-22 05:00:00 22 26 Norte 45 Norte 0 1012.2 -- 79
2020-07-22 04:00:00 22.1 35 Norte 42 Norte 0 1012.3 -- 80
2020-07-22 03:00:00 22.5 32 Norte 42 Norte 0 1012.8 -- 80
2020-07-22 02:00:00 22.3 27 Nordeste 39 Norte 0 1013.5 -- 82
2020-07-22 01:00:00 22.2 24 Norte 41 Norte 0 1013.7 -- 77
2020-07-22 00:00:00 22.3 29 Norte 41 Norte 0 1014 -- 77
2020-07-21 23:00:00 22.6 28 Norte 41 Norte 0 1013.8 -- 76
2020-07-21 22:00:00 22.6 31 Nordeste 39 Nordeste 0 1013.2 -- 81
2020-07-21 21:00:00 23 24 Nordeste 33 Nordeste 0 1013 -- 77
2020-07-21 20:00:00 23.9 26 Nordeste 35 Nordeste 0 1012.6 -- 73
2020-07-21 19:00:00 24.6 32 Nordeste 41 Nordeste 0 1012.1 -- 71
2020-07-21 18:00:00 25.3 28 Nordeste 39 Nordeste 0 1012.4 -- 67
2020-07-21 17:00:00 25.9 29 Nordeste 41 Nordeste 0 1012.1 -- 65
2020-07-21 16:00:00 25.8 32 Nordeste 41 Nordeste 0 1012.2 -- 65
2020-07-21 15:00:00 25.9 30 Nordeste 41 Nordeste 0 1012.6 -- 64
2020-07-21 14:00:00 26.2 31 Nordeste 41 Nordeste 0 1013 -- 63
2020-07-21 13:00:00 25.6 31 Nordeste 39 Nordeste 0 1013.3 -- 65
2020-07-21 12:00:00 25.3 25 Nordeste 33 Nordeste 0 1013.5 -- 66
2020-07-21 11:00:00 24.9 23 Nordeste 33 Nordeste 0 1013.4 -- 64
2020-07-21 10:00:00 24.3 30 Norte 42 Norte 0 1012.4 -- 65
2020-07-21 09:00:00 22.8 32 Norte 41 Norte 0 1012.2 -- 68
2020-07-21 08:00:00 22 31 Norte 45 Norte 0 1011.3 -- 71
2020-07-21 07:00:00 22 33 Norte 45 Norte 0 1011.4 -- 71
2020-07-21 06:00:00 22.5 27 Norte 37 Norte 0 1011.9 -- 72
2020-07-21 05:00:00 22.6 26 Nordeste 33 Nordeste 0 1011.9 -- 79
2020-07-21 04:00:00 22.8 26 Norte 42 Norte 0 1012.3 -- 74
2020-07-21 03:00:00 22.6 30 Norte 41 Norte 0 1011.6 -- 74
2020-07-21 02:00:00 22.6 33 Nordeste 45 Norte 0 1012.1 -- 75
2020-07-21 01:00:00 22.7 37 Nordeste 46 Norte 0 1012 -- 78
2020-07-21 00:00:00 22.7 34 Norte 45 Norte 0 1012 -- 75
2020-07-20 23:00:00 23.1 29 Norte 42 Norte 0 1012.1 -- 76
2020-07-20 22:00:00 23.4 32 Norte 41 Norte 0 1011.6 -- 73
2020-07-20 21:00:00 24.2 32 Norte 41 Norte 0 1010.6 -- 69
2020-07-20 20:00:00 24.4 29 Nordeste 42 Nordeste 0 1010.4 -- 76
2020-07-20 19:00:00 25.9 32 Nordeste 46 Nordeste 0 1010.7 -- 69
2020-07-20 18:00:00 28.4 31 Norte 48 Norte 0 1010.5 -- 54
2020-07-20 17:00:00 29.3 37 Norte 52 Norte 0 1010.2 -- 49
2020-07-20 16:00:00 30.2 39 Norte 54 Norte 0 1009.9 -- 49
2020-07-20 15:00:00 28.1 33 Nordeste 42 Nordeste 0 1010.5 -- 63
2020-07-20 14:00:00 26.3 31 Nordeste 41 Nordeste 0 1010.9 -- 72
2020-07-20 13:00:00 26.1 28 Nordeste 37 Nordeste 0 1011.4 -- 73
2020-07-20 12:00:00 26.2 27 Nordeste 35 Nordeste 0 1011.3 -- 72
2020-07-20 11:00:00 26.4 23 Nordeste 41 Norte 0 1011.2 -- 70
2020-07-20 10:00:00 26.6 27 Norte 41 Norte 0 1010.6 -- 63
2020-07-20 09:00:00 25.3 28 Norte 42 Noroeste 0 1009.5 -- 66
2020-07-20 08:00:00 25.1 26 Noroeste 39 Norte 0 1009.2 -- 61
2020-07-20 07:00:00 24.6 20 Norte 28 Norte 0 1009.1 -- 65
2020-07-20 06:00:00 25.3 21 Noroeste 30 Noroeste 0 1008.7 -- 65
2020-07-20 05:00:00 26 16 Norte 33 Norte 0 1008.8 -- 57
2020-07-20 04:00:00 26.2 26 Norte 35 Norte 0 1008.9 -- 57
2020-07-20 03:00:00 26.2 23 Norte 35 Norte 0 1009.3 -- 59
2020-07-20 02:00:00 27.3 19 Norte 32 Norte 0 1010 -- 53
2020-07-20 01:00:00 28.2 22 Norte 35 Norte 0 1009.8 -- 43
2020-07-20 00:00:00 28.3 29 Norte 39 Norte 0 1010 -- 45
2020-07-19 23:00:00 29.4 29 Norte 37 Norte 0 1009.8 -- 36
2020-07-19 22:00:00 30 28 Norte 39 Norte 0 1009.3 -- 36
2020-07-19 21:00:00 31 31 Norte 42 Noroeste 0 1008.8 -- 35
2020-07-19 20:00:00 33.1 28 Norte 42 Norte 0 1008 -- 34
2020-07-19 19:00:00 33.6 32 Norte 45 Norte 0 1007.9 -- 37
2020-07-19 18:00:00 35 32 Norte 42 Norte 0 1008.3 -- 34
2020-07-19 17:00:00 36.1 30 Norte 42 Norte 0 1008.6 -- 33
2020-07-19 16:00:00 32.1 25 Nordeste 33 Nordeste 0 1009 -- 50
2020-07-19 15:00:00 33.4 27 Nordeste 41 Nordeste 0 1009.4 -- 42
2020-07-19 14:00:00 32.2 20 Nordeste 33 Nordeste 0 1009.6 -- 49
2020-07-19 13:00:00 33.6 24 Nordeste 42 Norte 0 1009.7 -- 40
2020-07-19 12:00:00 34.2 30 Nordeste 39 Nordeste 0 1009.7 -- 34
2020-07-19 11:00:00 33.4 30 Norte 42 Norte 0 1009.5 1 32
2020-07-19 10:00:00 31.9 30 Norte 39 Norte 0 1009.3 0.4 33
2020-07-19 09:00:00 30.8 27 Norte 37 Norte 0 1009.1 0.4 32
2020-07-19 08:00:00 28.5 25 Norte 33 Norte 0 1008.5 -0.4 33
2020-07-19 07:00:00 27.6 21 Norte 30 Norte 0 1008.9 -- 37
2020-07-19 06:00:00 27.2 25 Norte 33 Norte 0 1008.7 -- 42
2020-07-19 05:00:00 26.9 20 Norte 30 Norte 0 1008.9 -- 47
2020-07-19 04:00:00 27.7 24 Norte 35 Norte 0 1008.9 -- 41
2020-07-19 03:00:00 28 23 Norte 32 Norte 0 1009 -- 41
2020-07-19 02:00:00 28.5 23 Norte 32 Norte 0 1009.6 -- 42
2020-07-19 01:00:00 28.2 19 Norte 32 Norte 0 1010.1 -- 46
2020-07-19 00:00:00 29 23 Norte 30 Norte 0 1010.5 -- 43
2020-07-18 23:00:00 29.3 21 Norte 30 Norte 0 1010.2 -- 43
2020-07-18 22:00:00 30.1 23 Norte 30 Norte 0 1009.8 -- 41
2020-07-18 21:00:00 28.3 16 Norte 26 Norte 0 1009.2 -- 58
2020-07-18 20:00:00 26.3 13 Norte 26 Nordeste 0 1008.9 -- 75
2020-07-18 19:00:00 27.7 18 Nordeste 33 Nordeste 0 1008.8 -- 71
2020-07-18 18:00:00 29.9 23 Nordeste 32 Nordeste 0 1008.8 -- 62
2020-07-18 17:00:00 28.8 23 Nordeste 32 Nordeste 0 1008.9 -- 67
2020-07-18 16:00:00 26.7 21 Nordeste 30 Este 0 1009.7 -- 73
2020-07-18 15:00:00 28.6 22 Nordeste 32 Nordeste 0 1010 -- 65
2020-07-18 14:00:00 28.1 21 Nordeste 32 Nordeste 0 1010.1 -- 66
2020-07-18 13:00:00 29.1 24 Nordeste 30 Nordeste 0 1010.3 -- 57
2020-07-18 12:00:00 30.7 21 Nordeste 32 Nordeste 0 1010.4 -- 46
2020-07-18 11:00:00 30.6 24 Nordeste 32 Nordeste 0 1010.2 -- 40
2020-07-18 10:00:00 30.4 22 Norte 32 Norte 0 1010 -- 36
2020-07-18 09:00:00 26.2 12 Norte 21 Norte 0 1010 -- 60
2020-07-18 08:00:00 24.4 14 Norte 21 Norte 0 1009.6 -- 55
2020-07-18 07:00:00 23.2 13 Norte 18 Norte 0 1009.5 -- 58
2020-07-18 06:00:00 22.5 11 Norte 21 Norte 0 1009 -- 66
2020-07-18 05:00:00 22.3 14 Norte 18 Norte 0 1009 -- 80
2020-07-18 04:00:00 22.1 5 Noroeste 28 Norte 0 1009.4 -- 82
2020-07-18 03:00:00 22.1 23 Norte 37 Norte 0 1009.7 -- 88
2020-07-18 02:00:00 22.6 32 Norte 42 Norte 0 1010.2 -- 83
2020-07-18 01:00:00 23.5 14 Noroeste 22 Noroeste 0 1010.4 -- 75
2020-07-18 00:00:00 23 12 Nordeste 28 Nordeste 0 1010.9 -- 84
2020-07-17 23:00:00 23 21 Nordeste 30 Nordeste 0 1010.6 -- 85
2020-07-17 22:00:00 22.8 22 Nordeste 42 Nordeste 0 1010 -- 89
2020-07-17 21:00:00 24.4 40 Nordeste 50 Nordeste 0 1009.5 -- 81
2020-07-17 20:00:00 28.4 10 Norte 26 Norte 0 1008.9 -- 58
2020-07-17 19:00:00 26.7 10 Norte 39 Nordeste 0 1008.7 -- 72
2020-07-17 18:00:00 25.6 26 Nordeste 33 Nordeste 0 1009.2 -- 78
2020-07-17 17:00:00 24.8 15 Nordeste 32 Nordeste 0 1009.8 -- 79
2020-07-17 16:00:00 25.6 28 Nordeste 55 Nordeste 0 1010.2 -- 76
2020-07-17 15:00:00 28.1 37 Nordeste 46 Nordeste 0 1009.4 -- 66
2020-07-17 14:00:00 26.7 17 Este 24 Este 0 1010.6 -- 72
2020-07-17 13:00:00 24.9 9 Nordeste 21 Nordeste 0 1011.1 -- 77
2020-07-17 12:00:00 24.5 17 Este 26 Este 0 1011.3 -- 78
2020-07-17 11:00:00 24.4 17 Nordeste 35 Nordeste 0 1011.1 -- 78
2020-07-17 10:00:00 24.4 12 Nordeste 17 Nordeste 0 1010.5 -- 73
2020-07-17 09:00:00 22.8 8 Sudoeste 28 Noroeste 0 1010.4 -- 79
2020-07-17 08:00:00 21.9 6 Norte 26 Oeste 0 1010.2 -- 79
2020-07-17 07:00:00 21.3 6 Oeste 22 Norte 0 1010 -- 83
2020-07-17 06:00:00 21.6 16 Norte 21 Norte 0 1010 -- 86
2020-07-17 05:00:00 21.7 2 Este 13 Norte 0 1009.9 -- 86
2020-07-17 04:00:00 21.9 9 Norte 13 Norte 0 1009.5 -- 86
2020-07-17 03:00:00 22 11 Norte 15 Nordeste 0 1010 -- 88
2020-07-17 02:00:00 22.3 13 Nordeste 22 Nordeste 0 1010.7 -- 88
2020-07-17 01:00:00 22.7 19 Nordeste 26 Nordeste 0 1011 -- 82
2020-07-17 00:00:00 23 22 Nordeste 28 Nordeste 0 1011.3 -- 80
2020-07-16 23:00:00 24 21 Nordeste 30 Nordeste 0 1011.2 -- 75
2020-07-16 22:00:00 25.7 16 Noroeste 32 Oeste 0 1010.1 -- 62
2020-07-16 21:00:00 26.7 19 Noroeste 32 Oeste 0 1009.3 -- 58
2020-07-16 20:00:00 28.1 24 Oeste 37 Noroeste 0 1008.9 -- 56
2020-07-16 19:00:00 29.1 22 Noroeste 37 Oeste 0 1008.8 -- 54
2020-07-16 18:00:00 29.4 29 Nordeste 39 Norte 0 1008.7 -- 55
2020-07-16 17:00:00 27.4 31 Nordeste 42 Nordeste 0 1009.1 -- 68
2020-07-16 16:00:00 26 30 Nordeste 41 Nordeste 0 1009.8 -- 71
2020-07-16 15:00:00 25.9 25 Nordeste 35 Nordeste 0 1009.9 -- 73
2020-07-16 14:00:00 25.2 21 Nordeste 28 Nordeste 0 1010.1 -- 74
2020-07-16 13:00:00 24.8 18 Nordeste 24 Nordeste 0 1010.3 -- 76
2020-07-16 12:00:00 24.7 17 Nordeste 24 Nordeste 0 1010.3 -- 76
2020-07-16 11:00:00 24.1 19 Nordeste 30 Nordeste 0 1010.4 -- 78
2020-07-16 10:00:00 24.7 25 Nordeste 33 Nordeste 0 1010 -- 72
2020-07-16 09:00:00 23 14 Norte 26 Norte 0 1009.1 -- 78
2020-07-16 08:00:00 21.9 14 Norte 22 Norte 0 1008.5 -- 83
2020-07-16 07:00:00 22 15 Norte 22 Norte 0 1007.8 -- 83
2020-07-16 06:00:00 22.1 16 Norte 26 Norte 0 1007.8 -- 81
2020-07-16 05:00:00 22.1 17 Norte 30 Norte 0 1007.6 -- 84
2020-07-16 04:00:00 21.9 23 Nordeste 33 Nordeste 0 1007.4 -- 88
2020-07-16 03:00:00 21.9 27 Nordeste 35 Nordeste 0 1007.9 -- 88
2020-07-16 02:00:00 22.3 26 Nordeste 32 Nordeste 0 1008.3 -- 86
2020-07-16 01:00:00 22.4 16 Norte 33 Norte 0 1008.6 -- 80
2020-07-16 00:00:00 22.8 26 Norte 33 Norte 0 1008.5 -- 78
2020-07-15 23:00:00 23.2 22 Norte 37 Norte 0 1008.2 -- 75
2020-07-15 22:00:00 23.4 31 Norte 41 Norte 0 1007.3 -- 75
2020-07-15 21:00:00 24.4 30 Norte 39 Norte 0 1006.9 -- 71
2020-07-15 20:00:00 25.2 30 Norte 39 Norte 0 1006.7 -- 70
2020-07-15 19:00:00 25.3 27 Nordeste 42 Nordeste 0 1006.8 -- 77
2020-07-15 18:00:00 25.2 32 Nordeste 45 Nordeste 0 1006.8 -- 76
2020-07-15 17:00:00 25.7 33 Nordeste 45 Nordeste 0 1007.3 -- 74
2020-07-15 16:00:00 26.2 36 Nordeste 46 Nordeste 0 1006.9 -- 72
2020-07-15 15:00:00 26.3 33 Nordeste 41 Nordeste 0 1007 -- 71
2020-07-15 14:00:00 26 30 Nordeste 37 Nordeste 0 1007.5 -- 73
2020-07-15 13:00:00 26.4 28 Nordeste 39 Nordeste 0 1007.7 -- 72
2020-07-15 12:00:00 25.4 25 Nordeste 32 Nordeste 0 1007.9 -- 76
2020-07-15 11:00:00 25.6 25 Nordeste 39 Norte 0 1007.9 -- 73
2020-07-15 10:00:00 25.8 29 Norte 39 Norte 0 1007.5 -- 68
2020-07-15 09:00:00 24.4 26 Norte 37 Norte 0 1007.2 -- 72
2020-07-15 08:00:00 22.7 21 Norte 30 Norte 0 1006.4 -- 78
2020-07-15 07:00:00 22.4 20 Norte 30 Norte 0 1006.1 -- 77
2020-07-15 06:00:00 22.9 21 Norte 33 Noroeste 0 1005.8 -- 73
2020-07-15 05:00:00 23.5 27 Noroeste 39 Noroeste 0 1005.6 -- 66
2020-07-15 04:00:00 23.3 28 Noroeste 39 Noroeste 0 1006 -- 69
2020-07-15 03:00:00 23.4 29 Noroeste 42 Norte 0 1006.7 -- 67
2020-07-15 02:00:00 23.4 29 Norte 39 Norte 0 1007.4 -- 67
2020-07-15 01:00:00 23.4 31 Norte 42 Norte 0 1008.1 -- 70
2020-07-15 00:00:00 24.4 29 Noroeste 48 Noroeste 0 1008.1 -- 63